sensor_id;sensor_type;location;lat;lon;timestamp;P1;durP1;ratioP1;P2;durP2;ratioP2
10699;SDS011;5401;41.986;21.452;2023-10-19T00:00:31;15.90;;;10.20;;
10699;SDS011;5401;41.986;21.452;2023-10-19T00:02:59;16.70;;;10.53;;
10699;SDS011;5401;41.986;21.452;2023-10-19T00:05:29;12.50;;;10.93;;
10699;SDS011;5401;41.986;21.452;2023-10-19T00:07:57;13.73;;;10.20;;
10699;SDS011;5401;41.986;21.452;2023-10-19T00:10:26;17.47;;;11.00;;
10699;SDS011;5401;41.986;21.452;2023-10-19T00:12:56;13.03;;;10.80;;
10699;SDS011;5401;41.986;21.452;2023-10-19T00:15:27;15.97;;;11.97;;
10699;SDS011;5401;41.986;21.452;2023-10-19T00:17:57;20.37;;;11.63;;
10699;SDS011;5401;41.986;21.452;2023-10-19T00:20:31;11.27;;;10.10;;
10699;SDS011;5401;41.986;21.452;2023-10-19T00:23:17;15.07;;;10.87;;
10699;SDS011;5401;41.986;21.452;2023-10-19T00:25:55;14.53;;;9.83;;
10699;SDS011;5401;41.986;21.452;2023-10-19T00:28:22;13.40;;;9.93;;
10699;SDS011;5401;41.986;21.452;2023-10-19T00:30:52;14.03;;;10.83;;
10699;SDS011;5401;41.986;21.452;2023-10-19T00:33:25;14.03;;;10.67;;
10699;SDS011;5401;41.986;21.452;2023-10-19T00:35:54;13.03;;;9.23;;
10699;SDS011;5401;41.986;21.452;2023-10-19T00:38:26;12.83;;;9.77;;
10699;SDS011;5401;41.986;21.452;2023-10-19T00:41:07;12.90;;;9.93;;
10699;SDS011;5401;41.986;21.452;2023-10-19T00:43:39;11.90;;;8.97;;
10699;SDS011;5401;41.986;21.452;2023-10-19T00:46:12;20.03;;;10.13;;
10699;SDS011;5401;41.986;21.452;2023-10-19T00:48:47;13.60;;;10.07;;
10699;SDS011;5401;41.986;21.452;2023-10-19T00:51:16;13.47;;;10.07;;
10699;SDS011;5401;41.986;21.452;2023-10-19T00:54:07;12.93;;;9.20;;
10699;SDS011;5401;41.986;21.452;2023-10-19T00:56:40;13.47;;;9.50;;
10699;SDS011;5401;41.986;21.452;2023-10-19T00:59:13;11.57;;;9.93;;
10699;SDS011;5401;41.986;21.452;2023-10-19T01:01:51;12.40;;;10.10;;
10699;SDS011;5401;41.986;21.452;2023-10-19T01:04:23;14.33;;;10.40;;
10699;SDS011;5401;41.986;21.452;2023-10-19T01:06:57;15.27;;;9.57;;
10699;SDS011;5401;41.986;21.452;2023-10-19T01:09:30;23.17;;;9.97;;
10699;SDS011;5401;41.986;21.452;2023-10-19T01:12:00;13.83;;;9.40;;
10699;SDS011;5401;41.986;21.452;2023-10-19T01:14:31;12.60;;;10.33;;
10699;SDS011;5401;41.986;21.452;2023-10-19T01:17:01;13.73;;;9.67;;
10699;SDS011;5401;41.986;21.452;2023-10-19T01:19:32;15.33;;;9.40;;
10699;SDS011;5401;41.986;21.452;2023-10-19T01:22:00;13.53;;;10.13;;
10699;SDS011;5401;41.986;21.452;2023-10-19T01:24:31;15.67;;;10.10;;
10699;SDS011;5401;41.986;21.452;2023-10-19T01:27:06;15.37;;;10.30;;
10699;SDS011;5401;41.986;21.452;2023-10-19T01:29:36;16.77;;;9.53;;
10699;SDS011;5401;41.986;21.452;2023-10-19T01:32:04;17.47;;;10.80;;
10699;SDS011;5401;41.986;21.452;2023-10-19T01:34:34;12.13;;;9.60;;
10699;SDS011;5401;41.986;21.452;2023-10-19T01:37:02;13.30;;;9.50;;
10699;SDS011;5401;41.986;21.452;2023-10-19T01:39:31;13.83;;;9.60;;
10699;SDS011;5401;41.986;21.452;2023-10-19T01:42:01;13.50;;;9.27;;
10699;SDS011;5401;41.986;21.452;2023-10-19T01:44:30;18.37;;;10.07;;
10699;SDS011;5401;41.986;21.452;2023-10-19T01:46:57;14.27;;;8.60;;
10699;SDS011;5401;41.986;21.452;2023-10-19T01:49:26;12.43;;;8.87;;
10699;SDS011;5401;41.986;21.452;2023-10-19T01:51:55;12.00;;;10.10;;
10699;SDS011;5401;41.986;21.452;2023-10-19T01:54:23;16.73;;;10.97;;
10699;SDS011;5401;41.986;21.452;2023-10-19T01:56:52;11.83;;;9.87;;
10699;SDS011;5401;41.986;21.452;2023-10-19T01:59:22;15.40;;;10.93;;
10699;SDS011;5401;41.986;21.452;2023-10-19T02:01:49;16.97;;;10.90;;
10699;SDS011;5401;41.986;21.452;2023-10-19T02:04:17;17.50;;;10.40;;
10699;SDS011;5401;41.986;21.452;2023-10-19T02:06:43;11.40;;;9.70;;
10699;SDS011;5401;41.986;21.452;2023-10-19T02:09:14;10.47;;;9.33;;
10699;SDS011;5401;41.986;21.452;2023-10-19T02:11:44;12.70;;;8.63;;
10699;SDS011;5401;41.986;21.452;2023-10-19T02:14:14;12.60;;;8.63;;
10699;SDS011;5401;41.986;21.452;2023-10-19T02:16:45;13.00;;;9.40;;
10699;SDS011;5401;41.986;21.452;2023-10-19T02:19:13;12.03;;;8.67;;
10699;SDS011;5401;41.986;21.452;2023-10-19T02:21:41;14.07;;;8.53;;
10699;SDS011;5401;41.986;21.452;2023-10-19T02:24:09;10.37;;;9.27;;
10699;SDS011;5401;41.986;21.452;2023-10-19T02:26:40;10.03;;;8.53;;
10699;SDS011;5401;41.986;21.452;2023-10-19T02:29:08;12.47;;;9.00;;
10699;SDS011;5401;41.986;21.452;2023-10-19T02:31:37;12.87;;;9.20;;
10699;SDS011;5401;41.986;21.452;2023-10-19T02:34:05;14.47;;;8.43;;
10699;SDS011;5401;41.986;21.452;2023-10-19T02:36:33;10.33;;;8.20;;
10699;SDS011;5401;41.986;21.452;2023-10-19T02:39:03;11.07;;;8.67;;
10699;SDS011;5401;41.986;21.452;2023-10-19T02:41:33;12.07;;;7.97;;
10699;SDS011;5401;41.986;21.452;2023-10-19T02:44:02;13.97;;;8.27;;
10699;SDS011;5401;41.986;21.452;2023-10-19T02:46:35;11.67;;;8.33;;
10699;SDS011;5401;41.986;21.452;2023-10-19T02:49:04;11.43;;;7.63;;
10699;SDS011;5401;41.986;21.452;2023-10-19T02:51:37;11.53;;;8.57;;
10699;SDS011;5401;41.986;21.452;2023-10-19T02:54:04;9.87;;;8.30;;
10699;SDS011;5401;41.986;21.452;2023-10-19T02:56:33;9.43;;;8.10;;
10699;SDS011;5401;41.986;21.452;2023-10-19T02:59:01;9.40;;;8.27;;
10699;SDS011;5401;41.986;21.452;2023-10-19T03:01:29;9.97;;;8.33;;
10699;SDS011;5401;41.986;21.452;2023-10-19T03:04:00;14.70;;;8.40;;
10699;SDS011;5401;41.986;21.452;2023-10-19T03:06:30;9.53;;;7.60;;
10699;SDS011;5401;41.986;21.452;2023-10-19T03:08:58;8.73;;;7.60;;
10699;SDS011;5401;41.986;21.452;2023-10-19T03:11:28;10.70;;;8.80;;
10699;SDS011;5401;41.986;21.452;2023-10-19T03:13:55;11.37;;;7.33;;
10699;SDS011;5401;41.986;21.452;2023-10-19T03:16:23;11.07;;;7.63;;
10699;SDS011;5401;41.986;21.452;2023-10-19T03:18:49;10.43;;;7.67;;
10699;SDS011;5401;41.986;21.452;2023-10-19T03:21:19;8.93;;;7.37;;
10699;SDS011;5401;41.986;21.452;2023-10-19T03:23:52;8.53;;;7.57;;
10699;SDS011;5401;41.986;21.452;2023-10-19T03:26:19;7.93;;;7.00;;
10699;SDS011;5401;41.986;21.452;2023-10-19T03:28:53;9.20;;;6.97;;
10699;SDS011;5401;41.986;21.452;2023-10-19T03:31:28;10.93;;;8.03;;
10699;SDS011;5401;41.986;21.452;2023-10-19T03:33:58;10.07;;;8.03;;
10699;SDS011;5401;41.986;21.452;2023-10-19T03:36:32;16.57;;;7.73;;
10699;SDS011;5401;41.986;21.452;2023-10-19T03:38:59;12.20;;;7.70;;
10699;SDS011;5401;41.986;21.452;2023-10-19T03:41:37;12.13;;;8.20;;
10699;SDS011;5401;41.986;21.452;2023-10-19T03:44:07;14.27;;;7.87;;
10699;SDS011;5401;41.986;21.452;2023-10-19T03:46:42;9.63;;;7.97;;
10699;SDS011;5401;41.986;21.452;2023-10-19T03:49:22;13.47;;;7.50;;
10699;SDS011;5401;41.986;21.452;2023-10-19T03:51:53;9.30;;;7.27;;
10699;SDS011;5401;41.986;21.452;2023-10-19T03:54:45;12.07;;;7.17;;
10699;SDS011;5401;41.986;21.452;2023-10-19T03:57:14;10.97;;;7.60;;
10699;SDS011;5401;41.986;21.452;2023-10-19T03:59:45;10.13;;;7.17;;
10699;SDS011;5401;41.986;21.452;2023-10-19T04:02:15;14.13;;;10.60;;
10699;SDS011;5401;41.986;21.452;2023-10-19T04:04:46;18.07;;;13.97;;
10699;SDS011;5401;41.986;21.452;2023-10-19T04:07:16;9.87;;;8.70;;
10699;SDS011;5401;41.986;21.452;2023-10-19T04:09:47;10.40;;;7.63;;
10699;SDS011;5401;41.986;21.452;2023-10-19T04:12:25;10.00;;;7.07;;
10699;SDS011;5401;41.986;21.452;2023-10-19T04:14:55;12.30;;;7.30;;
10699;SDS011;5401;41.986;21.452;2023-10-19T04:17:22;9.60;;;7.60;;
10699;SDS011;5401;41.986;21.452;2023-10-19T04:19:51;10.27;;;6.77;;
10699;SDS011;5401;41.986;21.452;2023-10-19T04:22:20;13.77;;;7.70;;
10699;SDS011;5401;41.986;21.452;2023-10-19T04:24:50;8.63;;;7.83;;
10699;SDS011;5401;41.986;21.452;2023-10-19T04:27:18;9.27;;;7.73;;
10699;SDS011;5401;41.986;21.452;2023-10-19T04:29:48;9.70;;;7.60;;
10699;SDS011;5401;41.986;21.452;2023-10-19T04:32:16;8.80;;;6.90;;
10699;SDS011;5401;41.986;21.452;2023-10-19T04:34:51;8.13;;;6.77;;
10699;SDS011;5401;41.986;21.452;2023-10-19T04:37:20;11.43;;;7.23;;
10699;SDS011;5401;41.986;21.452;2023-10-19T04:39:49;11.43;;;8.13;;
10699;SDS011;5401;41.986;21.452;2023-10-19T04:42:17;8.87;;;7.93;;
10699;SDS011;5401;41.986;21.452;2023-10-19T04:44:48;14.60;;;8.20;;
10699;SDS011;5401;41.986;21.452;2023-10-19T04:47:17;12.03;;;7.40;;
10699;SDS011;5401;41.986;21.452;2023-10-19T04:49:45;9.60;;;7.77;;
10699;SDS011;5401;41.986;21.452;2023-10-19T04:52:12;12.27;;;7.70;;
10699;SDS011;5401;41.986;21.452;2023-10-19T04:54:41;11.67;;;7.40;;
10699;SDS011;5401;41.986;21.452;2023-10-19T04:57:09;8.20;;;6.73;;
10699;SDS011;5401;41.986;21.452;2023-10-19T04:59:36;8.03;;;7.13;;
10699;SDS011;5401;41.986;21.452;2023-10-19T05:02:04;17.87;;;9.50;;
10699;SDS011;5401;41.986;21.452;2023-10-19T05:04:31;14.67;;;9.20;;
10699;SDS011;5401;41.986;21.452;2023-10-19T05:07:01;21.70;;;10.23;;
10699;SDS011;5401;41.986;21.452;2023-10-19T05:09:29;14.83;;;8.87;;
10699;SDS011;5401;41.986;21.452;2023-10-19T05:11:58;11.20;;;8.03;;
10699;SDS011;5401;41.986;21.452;2023-10-19T05:14:25;14.80;;;8.27;;
10699;SDS011;5401;41.986;21.452;2023-10-19T05:16:53;16.13;;;11.30;;
10699;SDS011;5401;41.986;21.452;2023-10-19T05:19:20;19.73;;;12.13;;
10699;SDS011;5401;41.986;21.452;2023-10-19T05:21:48;16.30;;;10.17;;
10699;SDS011;5401;41.986;21.452;2023-10-19T05:24:15;21.90;;;9.77;;
10699;SDS011;5401;41.986;21.452;2023-10-19T05:26:43;14.03;;;8.63;;
10699;SDS011;5401;41.986;21.452;2023-10-19T05:29:13;15.37;;;8.53;;
10699;SDS011;5401;41.986;21.452;2023-10-19T05:31:41;15.03;;;9.07;;
10699;SDS011;5401;41.986;21.452;2023-10-19T05:34:08;14.17;;;9.00;;
10699;SDS011;5401;41.986;21.452;2023-10-19T05:36:36;14.57;;;9.07;;
10699;SDS011;5401;41.986;21.452;2023-10-19T05:39:05;14.87;;;9.77;;
10699;SDS011;5401;41.986;21.452;2023-10-19T05:41:33;17.60;;;9.20;;
10699;SDS011;5401;41.986;21.452;2023-10-19T05:44:01;12.03;;;8.93;;
10699;SDS011;5401;41.986;21.452;2023-10-19T05:46:31;11.00;;;8.00;;
10699;SDS011;5401;41.986;21.452;2023-10-19T05:48:58;12.90;;;8.37;;
10699;SDS011;5401;41.986;21.452;2023-10-19T05:51:29;14.43;;;8.30;;
10699;SDS011;5401;41.986;21.452;2023-10-19T05:53:57;11.37;;;7.97;;
10699;SDS011;5401;41.986;21.452;2023-10-19T05:56:28;19.67;;;8.67;;
10699;SDS011;5401;41.986;21.452;2023-10-19T05:58:56;22.17;;;10.20;;
10699;SDS011;5401;41.986;21.452;2023-10-19T06:01:24;13.00;;;9.50;;
10699;SDS011;5401;41.986;21.452;2023-10-19T06:03:53;11.77;;;9.10;;
10699;SDS011;5401;41.986;21.452;2023-10-19T06:06:22;13.30;;;9.93;;
10699;SDS011;5401;41.986;21.452;2023-10-19T06:08:49;14.27;;;10.83;;
10699;SDS011;5401;41.986;21.452;2023-10-19T06:11:19;11.37;;;10.17;;
10699;SDS011;5401;41.986;21.452;2023-10-19T06:13:46;17.57;;;10.33;;
10699;SDS011;5401;41.986;21.452;2023-10-19T06:16:14;16.20;;;9.90;;
10699;SDS011;5401;41.986;21.452;2023-10-19T06:18:42;11.93;;;9.67;;
10699;SDS011;5401;41.986;21.452;2023-10-19T06:21:11;14.23;;;9.13;;
10699;SDS011;5401;41.986;21.452;2023-10-19T06:23:39;15.60;;;9.87;;
10699;SDS011;5401;41.986;21.452;2023-10-19T06:26:09;13.27;;;9.90;;
10699;SDS011;5401;41.986;21.452;2023-10-19T06:28:38;11.70;;;9.53;;
10699;SDS011;5401;41.986;21.452;2023-10-19T06:31:06;16.40;;;10.70;;
10699;SDS011;5401;41.986;21.452;2023-10-19T06:33:34;16.17;;;11.43;;
10699;SDS011;5401;41.986;21.452;2023-10-19T06:36:02;19.70;;;11.17;;
10699;SDS011;5401;41.986;21.452;2023-10-19T06:38:31;28.80;;;18.90;;
10699;SDS011;5401;41.986;21.452;2023-10-19T06:40:59;31.40;;;14.73;;
10699;SDS011;5401;41.986;21.452;2023-10-19T06:43:28;23.57;;;12.83;;
10699;SDS011;5401;41.986;21.452;2023-10-19T06:45:56;17.40;;;12.17;;
10699;SDS011;5401;41.986;21.452;2023-10-19T06:48:24;19.97;;;12.70;;
10699;SDS011;5401;41.986;21.452;2023-10-19T06:50:52;25.57;;;12.43;;
10699;SDS011;5401;41.986;21.452;2023-10-19T06:53:20;20.37;;;12.67;;
10699;SDS011;5401;41.986;21.452;2023-10-19T06:55:49;28.50;;;12.87;;
10699;SDS011;5401;41.986;21.452;2023-10-19T06:58:18;23.40;;;14.00;;
10699;SDS011;5401;41.986;21.452;2023-10-19T07:00:46;28.30;;;16.30;;
10699;SDS011;5401;41.986;21.452;2023-10-19T07:03:22;26.20;;;14.97;;
10699;SDS011;5401;41.986;21.452;2023-10-19T07:05:51;24.73;;;15.03;;
10699;SDS011;5401;41.986;21.452;2023-10-19T07:08:19;29.83;;;14.97;;
10699;SDS011;5401;41.986;21.452;2023-10-19T07:10:47;30.37;;;16.03;;
10699;SDS011;5401;41.986;21.452;2023-10-19T07:13:16;29.03;;;14.23;;
10699;SDS011;5401;41.986;21.452;2023-10-19T07:15:44;24.47;;;15.00;;
10699;SDS011;5401;41.986;21.452;2023-10-19T07:18:12;23.23;;;15.40;;
10699;SDS011;5401;41.986;21.452;2023-10-19T07:20:40;23.13;;;15.10;;
10699;SDS011;5401;41.986;21.452;2023-10-19T07:23:08;20.63;;;15.67;;
10699;SDS011;5401;41.986;21.452;2023-10-19T07:25:44;29.80;;;15.77;;
10699;SDS011;5401;41.986;21.452;2023-10-19T07:28:13;24.70;;;14.63;;
10699;SDS011;5401;41.986;21.452;2023-10-19T07:30:43;23.47;;;14.43;;
10699;SDS011;5401;41.986;21.452;2023-10-19T07:33:12;27.73;;;16.93;;
10699;SDS011;5401;41.986;21.452;2023-10-19T07:35:43;22.73;;;13.43;;
10699;SDS011;5401;41.986;21.452;2023-10-19T07:38:12;20.10;;;13.07;;
10699;SDS011;5401;41.986;21.452;2023-10-19T07:40:40;18.17;;;12.13;;
10699;SDS011;5401;41.986;21.452;2023-10-19T07:43:07;17.03;;;10.53;;
10699;SDS011;5401;41.986;21.452;2023-10-19T07:45:35;11.10;;;8.10;;
10699;SDS011;5401;41.986;21.452;2023-10-19T07:48:05;13.53;;;8.13;;
10699;SDS011;5401;41.986;21.452;2023-10-19T07:50:33;14.93;;;8.97;;
10699;SDS011;5401;41.986;21.452;2023-10-19T07:53:01;14.87;;;8.73;;
10699;SDS011;5401;41.986;21.452;2023-10-19T07:55:29;12.27;;;8.20;;
10699;SDS011;5401;41.986;21.452;2023-10-19T07:57:58;13.67;;;8.33;;
10699;SDS011;5401;41.986;21.452;2023-10-19T08:00:28;15.00;;;7.90;;
10699;SDS011;5401;41.986;21.452;2023-10-19T08:02:56;9.37;;;7.27;;
10699;SDS011;5401;41.986;21.452;2023-10-19T08:05:25;14.57;;;8.27;;
10699;SDS011;5401;41.986;21.452;2023-10-19T08:07:53;14.77;;;9.80;;
10699;SDS011;5401;41.986;21.452;2023-10-19T08:10:22;18.07;;;7.57;;
10699;SDS011;5401;41.986;21.452;2023-10-19T08:12:51;8.30;;;7.37;;
10699;SDS011;5401;41.986;21.452;2023-10-19T08:15:19;9.17;;;7.07;;
10699;SDS011;5401;41.986;21.452;2023-10-19T08:17:47;8.23;;;6.00;;
10699;SDS011;5401;41.986;21.452;2023-10-19T08:20:16;9.40;;;7.00;;
10699;SDS011;5401;41.986;21.452;2023-10-19T08:22:50;9.37;;;6.60;;
10699;SDS011;5401;41.986;21.452;2023-10-19T08:25:17;9.43;;;6.60;;
10699;SDS011;5401;41.986;21.452;2023-10-19T08:27:46;7.40;;;6.70;;
10699;SDS011;5401;41.986;21.452;2023-10-19T08:30:14;6.93;;;6.33;;
10699;SDS011;5401;41.986;21.452;2023-10-19T08:32:43;8.60;;;6.33;;
10699;SDS011;5401;41.986;21.452;2023-10-19T08:35:13;9.30;;;6.30;;
10699;SDS011;5401;41.986;21.452;2023-10-19T08:37:43;9.33;;;6.20;;
10699;SDS011;5401;41.986;21.452;2023-10-19T08:40:13;8.87;;;5.80;;
10699;SDS011;5401;41.986;21.452;2023-10-19T08:42:41;11.27;;;6.57;;
10699;SDS011;5401;41.986;21.452;2023-10-19T08:45:09;6.90;;;5.60;;
10699;SDS011;5401;41.986;21.452;2023-10-19T08:47:40;12.20;;;6.77;;
10699;SDS011;5401;41.986;21.452;2023-10-19T08:50:13;9.30;;;6.63;;
10699;SDS011;5401;41.986;21.452;2023-10-19T08:52:41;7.60;;;5.53;;
10699;SDS011;5401;41.986;21.452;2023-10-19T08:55:09;6.27;;;5.63;;
10699;SDS011;5401;41.986;21.452;2023-10-19T08:57:40;10.77;;;6.40;;
10699;SDS011;5401;41.986;21.452;2023-10-19T09:00:09;6.20;;;5.60;;
10699;SDS011;5401;41.986;21.452;2023-10-19T09:02:38;5.50;;;4.90;;
10699;SDS011;5401;41.986;21.452;2023-10-19T09:05:06;11.27;;;5.73;;
10699;SDS011;5401;41.986;21.452;2023-10-19T09:07:34;6.90;;;5.83;;
10699;SDS011;5401;41.986;21.452;2023-10-19T09:10:02;9.50;;;6.37;;
10699;SDS011;5401;41.986;21.452;2023-10-19T09:12:31;10.33;;;6.47;;
10699;SDS011;5401;41.986;21.452;2023-10-19T09:15:01;10.77;;;6.37;;
10699;SDS011;5401;41.986;21.452;2023-10-19T09:17:29;8.77;;;5.80;;
10699;SDS011;5401;41.986;21.452;2023-10-19T09:19:57;7.03;;;5.60;;
10699;SDS011;5401;41.986;21.452;2023-10-19T09:22:34;7.17;;;6.47;;
10699;SDS011;5401;41.986;21.452;2023-10-19T09:25:10;6.50;;;5.90;;
10699;SDS011;5401;41.986;21.452;2023-10-19T09:27:37;9.53;;;7.17;;
10699;SDS011;5401;41.986;21.452;2023-10-19T09:30:07;6.80;;;6.10;;
10699;SDS011;5401;41.986;21.452;2023-10-19T09:32:36;6.60;;;6.00;;
10699;SDS011;5401;41.986;21.452;2023-10-19T09:35:05;9.53;;;7.50;;
10699;SDS011;5401;41.986;21.452;2023-10-19T09:37:34;12.20;;;6.47;;
10699;SDS011;5401;41.986;21.452;2023-10-19T09:40:02;11.73;;;10.50;;
10699;SDS011;5401;41.986;21.452;2023-10-19T09:42:31;12.43;;;7.53;;
10699;SDS011;5401;41.986;21.452;2023-10-19T09:44:59;11.83;;;5.93;;
10699;SDS011;5401;41.986;21.452;2023-10-19T09:47:34;12.43;;;8.17;;
10699;SDS011;5401;41.986;21.452;2023-10-19T09:50:05;23.73;;;12.83;;
10699;SDS011;5401;41.986;21.452;2023-10-19T09:52:33;10.63;;;6.83;;
10699;SDS011;5401;41.986;21.452;2023-10-19T09:55:03;10.30;;;7.40;;
10699;SDS011;5401;41.986;21.452;2023-10-19T09:57:48;15.37;;;9.90;;
10699;SDS011;5401;41.986;21.452;2023-10-19T10:00:20;10.87;;;7.63;;
10699;SDS011;5401;41.986;21.452;2023-10-19T10:02:51;10.13;;;7.87;;
10699;SDS011;5401;41.986;21.452;2023-10-19T10:08:31;10.07;;;8.10;;
10699;SDS011;5401;41.986;21.452;2023-10-19T10:11:00;8.33;;;7.03;;
10699;SDS011;5401;41.986;21.452;2023-10-19T10:13:44;9.90;;;8.53;;
10699;SDS011;5401;41.986;21.452;2023-10-19T10:16:14;9.93;;;6.90;;
10699;SDS011;5401;41.986;21.452;2023-10-19T10:18:45;8.83;;;7.27;;
10699;SDS011;5401;41.986;21.452;2023-10-19T10:21:16;8.87;;;8.00;;
10699;SDS011;5401;41.986;21.452;2023-10-19T10:23:49;13.23;;;7.00;;
10699;SDS011;5401;41.986;21.452;2023-10-19T10:26:19;11.57;;;7.47;;
10699;SDS011;5401;41.986;21.452;2023-10-19T10:31:40;9.10;;;7.23;;
10699;SDS011;5401;41.986;21.452;2023-10-19T10:34:11;12.10;;;9.13;;
10699;SDS011;5401;41.986;21.452;2023-10-19T10:36:58;8.27;;;6.67;;
10699;SDS011;5401;41.986;21.452;2023-10-19T10:39:28;9.97;;;8.20;;
10699;SDS011;5401;41.986;21.452;2023-10-19T10:41:57;9.13;;;6.30;;
10699;SDS011;5401;41.986;21.452;2023-10-19T10:44:40;13.17;;;6.27;;
10699;SDS011;5401;41.986;21.452;2023-10-19T10:47:09;7.37;;;6.30;;
10699;SDS011;5401;41.986;21.452;2023-10-19T10:49:49;8.10;;;6.73;;
10699;SDS011;5401;41.986;21.452;2023-10-19T10:52:25;8.70;;;7.63;;
10699;SDS011;5401;41.986;21.452;2023-10-19T10:54:54;7.27;;;6.40;;
10699;SDS011;5401;41.986;21.452;2023-10-19T10:57:22;8.53;;;7.63;;
10699;SDS011;5401;41.986;21.452;2023-10-19T11:00:03;15.37;;;9.80;;
10699;SDS011;5401;41.986;21.452;2023-10-19T11:02:33;9.07;;;7.17;;
10699;SDS011;5401;41.986;21.452;2023-10-19T11:05:03;10.20;;;9.13;;
10699;SDS011;5401;41.986;21.452;2023-10-19T11:07:31;9.37;;;6.87;;
10699;SDS011;5401;41.986;21.452;2023-10-19T11:09:58;8.50;;;6.60;;
10699;SDS011;5401;41.986;21.452;2023-10-19T11:12:27;12.77;;;8.53;;
10699;SDS011;5401;41.986;21.452;2023-10-19T11:14:55;9.50;;;7.03;;
10699;SDS011;5401;41.986;21.452;2023-10-19T11:17:25;7.90;;;7.13;;
10699;SDS011;5401;41.986;21.452;2023-10-19T11:19:56;17.93;;;8.80;;
10699;SDS011;5401;41.986;21.452;2023-10-19T11:22:25;7.50;;;6.90;;
10699;SDS011;5401;41.986;21.452;2023-10-19T11:24:53;8.70;;;6.80;;
10699;SDS011;5401;41.986;21.452;2023-10-19T11:27:22;9.23;;;7.60;;
10699;SDS011;5401;41.986;21.452;2023-10-19T11:29:56;7.33;;;6.47;;
10699;SDS011;5401;41.986;21.452;2023-10-19T11:32:24;8.00;;;7.20;;
10699;SDS011;5401;41.986;21.452;2023-10-19T11:34:53;8.20;;;7.27;;
10699;SDS011;5401;41.986;21.452;2023-10-19T11:37:22;8.47;;;6.87;;
10699;SDS011;5401;41.986;21.452;2023-10-19T11:39:50;12.37;;;7.50;;
10699;SDS011;5401;41.986;21.452;2023-10-19T11:42:18;9.23;;;7.57;;
10699;SDS011;5401;41.986;21.452;2023-10-19T11:44:45;8.80;;;7.57;;
10699;SDS011;5401;41.986;21.452;2023-10-19T11:47:13;7.50;;;6.80;;
10699;SDS011;5401;41.986;21.452;2023-10-19T11:49:40;7.23;;;6.47;;
10699;SDS011;5401;41.986;21.452;2023-10-19T11:52:08;8.60;;;7.70;;
10699;SDS011;5401;41.986;21.452;2023-10-19T11:54:35;8.43;;;6.87;;
10699;SDS011;5401;41.986;21.452;2023-10-19T11:57:05;7.83;;;6.57;;
10699;SDS011;5401;41.986;21.452;2023-10-19T11:59:33;7.57;;;6.87;;
10699;SDS011;5401;41.986;21.452;2023-10-19T12:02:00;7.27;;;6.67;;
10699;SDS011;5401;41.986;21.452;2023-10-19T12:04:29;8.40;;;6.93;;
10699;SDS011;5401;41.986;21.452;2023-10-19T12:06:58;7.43;;;6.80;;
10699;SDS011;5401;41.986;21.452;2023-10-19T12:09:26;8.37;;;6.53;;
10699;SDS011;5401;41.986;21.452;2023-10-19T12:11:54;9.97;;;6.40;;
10699;SDS011;5401;41.986;21.452;2023-10-19T12:14:23;6.77;;;6.07;;
10699;SDS011;5401;41.986;21.452;2023-10-19T12:16:50;7.03;;;6.40;;
10699;SDS011;5401;41.986;21.452;2023-10-19T12:19:19;6.60;;;5.97;;
10699;SDS011;5401;41.986;21.452;2023-10-19T12:21:46;10.83;;;7.23;;
10699;SDS011;5401;41.986;21.452;2023-10-19T12:24:15;9.70;;;6.73;;
10699;SDS011;5401;41.986;21.452;2023-10-19T12:26:43;11.13;;;6.30;;
10699;SDS011;5401;41.986;21.452;2023-10-19T12:29:12;9.77;;;6.67;;
10699;SDS011;5401;41.986;21.452;2023-10-19T12:31:43;6.53;;;6.03;;
10699;SDS011;5401;41.986;21.452;2023-10-19T12:34:12;6.83;;;5.97;;
10699;SDS011;5401;41.986;21.452;2023-10-19T12:36:39;7.07;;;6.37;;
10699;SDS011;5401;41.986;21.452;2023-10-19T12:39:10;7.33;;;6.57;;
10699;SDS011;5401;41.986;21.452;2023-10-19T12:41:58;6.37;;;5.87;;
10699;SDS011;5401;41.986;21.452;2023-10-19T12:44:26;7.60;;;6.80;;
10699;SDS011;5401;41.986;21.452;2023-10-19T12:46:57;6.37;;;5.77;;
10699;SDS011;5401;41.986;21.452;2023-10-19T12:49:24;13.27;;;6.73;;
10699;SDS011;5401;41.986;21.452;2023-10-19T12:51:52;6.37;;;5.77;;
10699;SDS011;5401;41.986;21.452;2023-10-19T12:54:20;10.87;;;5.30;;
10699;SDS011;5401;41.986;21.452;2023-10-19T12:56:47;7.03;;;6.30;;
10699;SDS011;5401;41.986;21.452;2023-10-19T12:59:15;7.07;;;5.63;;
10699;SDS011;5401;41.986;21.452;2023-10-19T13:01:44;7.17;;;5.93;;
10699;SDS011;5401;41.986;21.452;2023-10-19T13:04:15;7.70;;;5.53;;
10699;SDS011;5401;41.986;21.452;2023-10-19T13:06:43;5.60;;;5.10;;
10699;SDS011;5401;41.986;21.452;2023-10-19T13:09:13;7.17;;;5.63;;
10699;SDS011;5401;41.986;21.452;2023-10-19T13:11:42;5.70;;;5.20;;
10699;SDS011;5401;41.986;21.452;2023-10-19T13:14:11;7.23;;;5.23;;
10699;SDS011;5401;41.986;21.452;2023-10-19T13:16:38;9.03;;;5.33;;
10699;SDS011;5401;41.986;21.452;2023-10-19T13:19:06;7.13;;;5.40;;
10699;SDS011;5401;41.986;21.452;2023-10-19T13:21:40;7.87;;;5.60;;
10699;SDS011;5401;41.986;21.452;2023-10-19T13:24:08;6.87;;;5.57;;
10699;SDS011;5401;41.986;21.452;2023-10-19T13:26:36;6.00;;;5.03;;
10699;SDS011;5401;41.986;21.452;2023-10-19T13:29:06;6.97;;;5.37;;
10699;SDS011;5401;41.986;21.452;2023-10-19T13:31:33;7.00;;;6.30;;
10699;SDS011;5401;41.986;21.452;2023-10-19T13:34:00;8.27;;;5.90;;
10699;SDS011;5401;41.986;21.452;2023-10-19T13:36:29;8.57;;;6.03;;
10699;SDS011;5401;41.986;21.452;2023-10-19T13:38:58;13.13;;;6.47;;
10699;SDS011;5401;41.986;21.452;2023-10-19T13:41:25;9.43;;;6.40;;
10699;SDS011;5401;41.986;21.452;2023-10-19T13:43:53;7.07;;;5.50;;
10699;SDS011;5401;41.986;21.452;2023-10-19T13:46:21;9.73;;;5.77;;
10699;SDS011;5401;41.986;21.452;2023-10-19T13:48:49;6.80;;;6.17;;
10699;SDS011;5401;41.986;21.452;2023-10-19T13:51:17;6.60;;;6.00;;
10699;SDS011;5401;41.986;21.452;2023-10-19T13:53:45;7.50;;;5.90;;
10699;SDS011;5401;41.986;21.452;2023-10-19T13:56:17;8.03;;;5.83;;
10699;SDS011;5401;41.986;21.452;2023-10-19T13:58:44;10.13;;;6.60;;
10699;SDS011;5401;41.986;21.452;2023-10-19T14:01:12;14.13;;;6.70;;
10699;SDS011;5401;41.986;21.452;2023-10-19T14:03:40;8.00;;;6.60;;
10699;SDS011;5401;41.986;21.452;2023-10-19T14:06:11;9.80;;;5.57;;
10699;SDS011;5401;41.986;21.452;2023-10-19T14:08:39;6.37;;;5.83;;
10699;SDS011;5401;41.986;21.452;2023-10-19T14:11:06;8.50;;;6.73;;
10699;SDS011;5401;41.986;21.452;2023-10-19T14:13:35;7.47;;;5.50;;
10699;SDS011;5401;41.986;21.452;2023-10-19T14:16:06;6.30;;;5.70;;
10699;SDS011;5401;41.986;21.452;2023-10-19T14:18:34;10.00;;;6.07;;
10699;SDS011;5401;41.986;21.452;2023-10-19T14:21:10;10.83;;;5.73;;
10699;SDS011;5401;41.986;21.452;2023-10-19T14:23:39;7.13;;;5.93;;
10699;SDS011;5401;41.986;21.452;2023-10-19T14:26:08;8.90;;;6.00;;
10699;SDS011;5401;41.986;21.452;2023-10-19T14:28:37;12.77;;;6.93;;
10699;SDS011;5401;41.986;21.452;2023-10-19T14:31:06;8.83;;;6.50;;
10699;SDS011;5401;41.986;21.452;2023-10-19T14:33:34;9.87;;;7.50;;
10699;SDS011;5401;41.986;21.452;2023-10-19T14:36:02;13.00;;;6.90;;
10699;SDS011;5401;41.986;21.452;2023-10-19T14:38:30;9.97;;;7.50;;
10699;SDS011;5401;41.986;21.452;2023-10-19T14:40:58;10.30;;;8.07;;
10699;SDS011;5401;41.986;21.452;2023-10-19T14:43:26;16.20;;;7.70;;
10699;SDS011;5401;41.986;21.452;2023-10-19T14:45:56;13.80;;;7.67;;
10699;SDS011;5401;41.986;21.452;2023-10-19T14:48:24;10.77;;;8.83;;
10699;SDS011;5401;41.986;21.452;2023-10-19T14:50:52;9.77;;;8.63;;
10699;SDS011;5401;41.986;21.452;2023-10-19T14:53:23;12.40;;;8.03;;
10699;SDS011;5401;41.986;21.452;2023-10-19T14:55:50;10.47;;;8.37;;
10699;SDS011;5401;41.986;21.452;2023-10-19T14:58:19;24.77;;;9.00;;